Time;durP1;ratioP1;P1;durP2;ratioP2;P2;SDS_P1;SDS_P2;PMS_P1;PMS_P2;Temp;Humidity;BMP_temperature;BMP_pressure;BME280_temperature;BME280_humidity;BME280_pressure;Samples;Min_cycle;Max_cycle;Signal;HPM_P1;HPM_P2
2023/06/21 00:00:45;;;;;;;1.20;1.20;;;20.30;99.90;;;;;;4974123;28;20046;-92
2023/06/21 00:03:32;;;;;;;1.00;1.00;;;20.10;99.90;;;;;;4988220;28;20065;-90
2023/06/21 00:06:00;;;;;;;1.00;1.00;;;20.10;99.90;;;;;;4973900;28;20439;-93
2023/06/21 00:08:29;;;;;;;1.02;1.02;;;20.00;99.90;;;;;;4970629;28;20046;-94
2023/06/21 00:11:10;;;;;;;;;;;;;;;;;;;;;
2023/06/21 00:14:09;;;;;;;0.93;0.93;;;20.00;99.90;;;;;;4990383;28;20097;-94
2023/06/21 00:16:37;;;;;;;1.00;1.00;;;20.10;99.90;;;;;;4972364;28;20066;-90
2023/06/21 00:19:33;;;;;;;1.00;1.00;;;20.10;99.90;;;;;;4977604;28;20117;-94
2023/06/21 00:22:47;;;;;;;1.02;1.02;;;20.20;99.90;;;;;;4969647;28;20488;-95
2023/06/21 00:25:14;;;;;;;1.02;1.02;;;20.10;99.90;;;;;;4905360;29;20502;-92
2023/06/21 00:27:59;;;;;;;1.17;1.17;;;20.10;99.90;;;;;;4905963;29;20310;-95
2023/06/21 00:30:58;;;;;;;1.15;1.15;;;20.10;99.90;;;;;;4905432;29;20462;-94
2023/06/21 00:33:29;;;;;;;1.25;1.25;;;20.00;99.90;;;;;;4905354;29;20070;-95
2023/06/21 00:35:55;;;;;;;1.45;1.35;;;19.90;99.90;;;;;;4900520;29;20055;-92
2023/06/21 00:38:41;;;;;;;1.33;1.33;;;20.00;99.90;;;;;;4895299;29;20050;-93
2023/06/21 00:42:06;;;;;;;1.63;1.52;;;19.90;99.90;;;;;;4914811;29;20059;-95
2023/06/21 00:44:37;;;;;;;1.20;1.20;;;20.00;99.90;;;;;;4982261;28;20188;-91
2023/06/21 00:47:04;;;;;;;1.33;1.33;;;20.10;99.90;;;;;;4981301;28;20043;-91
2023/06/21 00:49:52;;;;;;;1.40;1.35;;;19.80;99.90;;;;;;4976910;28;20041;-95
2023/06/21 00:52:21;;;;;;;1.20;1.20;;;20.10;99.90;;;;;;4975142;28;20678;-94
2023/06/21 00:55:24;;;;;;;;;;;;;;;;;;;;;
2023/06/21 01:02:05;;;;;;;1.30;1.30;;;19.80;99.90;;;;;;4944293;28;20846;-93
2023/06/21 01:04:41;;;;;;;1.30;1.30;;;19.90;99.90;;;;;;4979702;28;20054;-94
2023/06/21 01:08:11;;;;;;;1.30;1.30;;;19.80;99.90;;;;;;4999295;28;20418;-92
2023/06/21 01:11:24;;;;;;;1.30;1.30;;;19.70;99.90;;;;;;4975157;28;20145;-92
2023/06/21 01:14:37;;;;;;;1.20;1.20;;;19.70;99.90;;;;;;4946908;28;20094;-93
2023/06/21 01:17:37;;;;;;;1.20;1.20;;;19.60;99.90;;;;;;4959451;28;20089;-94
2023/06/21 01:28:30;;;;;;;1.20;1.20;;;19.50;99.90;;;;;;4905117;29;20052;-95
2023/06/21 01:35:46;;;;;;;1.50;1.40;;;19.40;99.90;;;;;;4902131;29;20104;-95
2023/06/21 01:56:28;;;;;;;2.00;1.90;;;19.30;99.90;;;;;;4982922;28;20089;-95
2023/06/21 02:18:51;;;;;;;2.20;2.10;;;19.50;99.90;;;;;;4939348;29;20043;-91
2023/06/21 02:28:48;;;;;;;2.20;2.10;;;19.50;99.90;;;;;;4865076;29;20056;-94
2023/06/21 02:31:16;;;;;;;2.15;2.05;;;19.30;99.90;;;;;;4882783;29;20056;-93
2023/06/21 02:33:51;;;;;;;2.28;2.17;;;19.40;99.90;;;;;;4860792;29;20052;-93
2023/06/21 02:43:56;;;;;;;2.40;2.30;;;19.40;99.90;;;;;;4807000;29;20051;-88
2023/06/21 02:46:25;;;;;;;2.42;2.33;;;19.40;99.90;;;;;;4882675;29;20056;-95
2023/06/21 02:49:09;;;;;;;2.33;2.22;;;19.50;99.90;;;;;;4882077;29;20108;-94
2023/06/21 03:06:23;;;;;;;2.50;2.40;;;19.00;99.90;;;;;;4842749;29;20603;-93
2023/06/21 03:08:51;;;;;;;2.90;2.70;;;19.10;99.90;;;;;;4938580;28;20054;-93
2023/06/21 03:11:29;;;;;;;2.90;2.70;;;19.00;99.90;;;;;;4975765;28;20095;-94
2023/06/21 03:13:55;;;;;;;2.90;2.70;;;19.10;99.90;;;;;;4983528;28;20369;-91
2023/06/21 03:16:21;;;;;;;2.90;2.70;;;19.00;99.90;;;;;;4984532;28;20111;-93
2023/06/21 03:18:50;;;;;;;3.10;2.90;;;19.10;99.90;;;;;;4977699;28;20130;-92
2023/06/21 03:21:27;;;;;;;3.08;2.88;;;19.10;99.90;;;;;;4980512;28;20049;-94
2023/06/21 03:23:56;;;;;;;3.25;3.05;;;19.10;99.90;;;;;;4994159;28;20049;-92
2023/06/21 03:26:24;;;;;;;3.10;2.90;;;19.10;99.90;;;;;;4981877;28;20178;-93
2023/06/21 03:29:06;;;;;;;3.25;3.05;;;19.10;99.90;;;;;;4979373;28;20641;-92
2023/06/21 03:31:33;;;;;;;3.58;3.38;;;19.00;99.90;;;;;;4981766;28;20038;-92
2023/06/21 03:33:59;;;;;;;3.70;3.50;;;19.10;99.90;;;;;;4982331;28;20125;-91
2023/06/21 03:36:34;;;;;;;4.20;3.90;;;19.00;99.90;;;;;;4982288;28;20077;-94
2023/06/21 03:39:11;;;;;;;4.70;4.30;;;18.80;99.90;;;;;;4983912;28;20080;-94
2023/06/21 03:42:12;;;;;;;4.10;3.83;;;18.70;99.90;;;;;;4977551;28;20046;-92
2023/06/21 03:44:44;;;;;;;4.28;3.97;;;18.80;99.90;;;;;;4981861;28;20125;-92
2023/06/21 03:47:30;;;;;;;3.90;3.70;;;18.90;99.90;;;;;;4972223;28;20050;-92
2023/06/21 03:49:57;;;;;;;4.25;3.95;;;18.80;99.90;;;;;;4995709;28;20382;-94
2023/06/21 03:52:23;;;;;;;4.05;3.80;;;18.70;99.90;;;;;;4998271;28;20052;-90
2023/06/21 03:55:02;;;;;;;3.70;3.50;;;18.90;99.90;;;;;;4999022;28;20038;-92
2023/06/21 03:57:27;;;;;;;3.60;3.40;;;18.80;99.90;;;;;;4978644;28;20100;-91
2023/06/21 03:59:56;;;;;;;2.92;2.72;;;18.80;99.90;;;;;;4971453;28;20050;-92
2023/06/21 04:02:22;;;;;;;2.90;2.70;;;19.00;99.90;;;;;;4982997;28;20037;-93
2023/06/21 04:04:48;;;;;;;2.60;2.50;;;18.90;99.90;;;;;;4985338;28;20046;-90
2023/06/21 04:07:17;;;;;;;2.35;2.25;;;18.80;99.90;;;;;;4975868;28;20042;-91
2023/06/21 04:09:49;;;;;;;2.30;2.20;;;19.00;99.90;;;;;;4983047;28;20045;-93
2023/06/21 04:12:28;;;;;;;2.33;2.22;;;18.90;99.90;;;;;;4973736;28;20042;-93
2023/06/21 04:15:37;;;;;;;;;;;;;;;;;;;;;
2023/06/21 04:18:15;;;;;;;2.38;2.28;;;18.90;99.90;;;;;;4993609;28;20046;-93
2023/06/21 04:20:41;;;;;;;2.38;2.28;;;19.10;99.90;;;;;;4975831;28;20050;-91
2023/06/21 04:23:07;;;;;;;2.40;2.30;;;19.20;99.90;;;;;;4973178;28;20129;-91
2023/06/21 04:25:33;;;;;;;2.22;2.13;;;19.30;99.90;;;;;;4992065;28;20369;-90
2023/06/21 04:27:59;;;;;;;2.58;2.47;;;19.20;99.90;;;;;;4974994;28;20050;-90
2023/06/21 04:30:24;;;;;;;2.45;2.35;;;19.20;99.90;;;;;;4976677;28;20089;-91
2023/06/21 04:32:51;;;;;;;2.40;2.30;;;19.20;99.90;;;;;;4965317;28;20049;-91
2023/06/21 04:35:18;;;;;;;2.40;2.30;;;19.10;99.90;;;;;;4973899;28;20042;-90
2023/06/21 04:37:45;;;;;;;2.20;2.10;;;19.20;99.90;;;;;;4973601;28;20096;-88
2023/06/21 04:40:15;;;;;;;2.10;2.00;;;19.30;99.90;;;;;;4988849;28;20046;-85
2023/06/21 04:42:45;;;;;;;2.10;2.00;;;19.30;99.90;;;;;;4995016;28;20121;-93
2023/06/21 04:45:15;;;;;;;1.98;1.88;;;19.20;99.90;;;;;;4976478;28;20729;-91
2023/06/21 04:47:42;;;;;;;1.55;1.45;;;19.30;99.90;;;;;;4992862;28;20074;-86
2023/06/21 04:50:10;;;;;;;1.20;1.20;;;19.30;99.90;;;;;;4973435;28;20049;-89
2023/06/21 04:52:38;;;;;;;1.77;1.67;;;19.40;99.90;;;;;;4987778;28;20383;-89
2023/06/21 04:55:12;;;;;;;1.60;1.50;;;20.10;99.90;;;;;;4986364;28;20109;-91
2023/06/21 04:57:41;;;;;;;1.60;1.50;;;20.00;99.90;;;;;;4971814;28;20063;-87
2023/06/21 05:00:09;;;;;;;1.60;1.50;;;19.60;99.90;;;;;;4996832;28;20057;-90
2023/06/21 05:02:35;;;;;;;1.60;1.50;;;19.60;99.90;;;;;;4970691;28;20081;-91
2023/06/21 05:05:03;;;;;;;1.80;1.70;;;19.70;99.90;;;;;;4979751;28;20039;-93
2023/06/21 05:07:29;;;;;;;1.77;1.67;;;19.50;99.90;;;;;;4976251;28;20057;-92
2023/06/21 05:09:55;;;;;;;1.30;1.30;;;19.60;99.90;;;;;;4979617;28;20419;-87
2023/06/21 05:12:23;;;;;;;1.30;1.30;;;19.70;99.90;;;;;;4997440;28;20407;-93
2023/06/21 05:14:49;;;;;;;1.23;1.23;;;19.70;99.90;;;;;;4974421;28;20053;-91
2023/06/21 05:17:15;;;;;;;1.30;1.30;;;19.90;99.90;;;;;;4993713;28;20109;-87
2023/06/21 05:19:42;;;;;;;1.40;1.35;;;20.00;99.90;;;;;;4992535;28;20058;-90
2023/06/21 05:22:08;;;;;;;1.40;1.35;;;20.00;99.90;;;;;;4978494;28;20128;-90
2023/06/21 05:24:36;;;;;;;1.33;1.33;;;19.90;99.90;;;;;;4992176;28;20126;-90
2023/06/21 05:27:03;;;;;;;1.40;1.35;;;19.90;99.90;;;;;;4989739;28;20058;-86
2023/06/21 05:29:28;;;;;;;1.48;1.40;;;19.90;99.90;;;;;;4989360;28;20830;-89
2023/06/21 05:31:54;;;;;;;1.52;1.42;;;19.80;99.90;;;;;;4991597;28;20054;-87
2023/06/21 05:34:19;;;;;;;1.45;1.38;;;19.90;99.90;;;;;;4979587;28;20046;-90
2023/06/21 05:36:45;;;;;;;1.52;1.42;;;20.30;99.90;;;;;;4977114;28;20042;-93
2023/06/21 05:39:11;;;;;;;1.65;1.55;;;20.20;99.90;;;;;;4967835;28;20089;-87
2023/06/21 05:41:36;;;;;;;1.58;1.48;;;20.20;99.90;;;;;;4992744;28;20078;-89
2023/06/21 05:44:02;;;;;;;1.55;1.45;;;20.00;99.90;;;;;;4975807;28;20050;-88
2023/06/21 05:46:28;;;;;;;1.60;1.50;;;20.00;99.90;;;;;;4975391;28;20103;-91
2023/06/21 05:48:54;;;;;;;1.30;1.30;;;20.00;99.90;;;;;;4981120;28;20034;-87
2023/06/21 05:51:19;;;;;;;1.30;1.30;;;20.10;99.90;;;;;;4979312;28;20384;-89
2023/06/21 05:53:45;;;;;;;1.20;1.20;;;20.20;99.90;;;;;;4979782;28;20117;-89
2023/06/21 05:56:13;;;;;;;1.27;1.27;;;20.00;99.90;;;;;;4986859;28;20114;-89
2023/06/21 05:58:39;;;;;;;1.65;1.55;;;20.10;99.90;;;;;;4966056;28;20049;-89
2023/06/21 06:01:05;;;;;;;1.80;1.70;;;20.10;99.90;;;;;;4974941;28;20046;-88
2023/06/21 06:03:30;;;;;;;1.80;1.70;;;20.10;99.90;;;;;;4973757;28;20046;-88
2023/06/21 06:05:56;;;;;;;1.80;1.70;;;20.00;99.90;;;;;;4979840;28;20050;-89
2023/06/21 06:08:22;;;;;;;1.70;1.60;;;20.10;99.90;;;;;;4978650;28;20416;-88
2023/06/21 06:10:48;;;;;;;1.60;1.50;;;20.10;99.90;;;;;;4980932;28;20437;-88
2023/06/21 06:13:14;;;;;;;1.70;1.60;;;20.20;99.90;;;;;;4972225;28;20058;-87
2023/06/21 06:15:39;;;;;;;1.60;1.50;;;20.30;99.90;;;;;;4974503;28;20063;-90
2023/06/21 06:18:05;;;;;;;1.73;1.63;;;20.30;99.90;;;;;;4973691;28;20080;-89
2023/06/21 06:20:37;;;;;;;1.70;1.60;;;20.30;99.90;;;;;;4985933;28;20046;-93
2023/06/21 06:23:02;;;;;;;1.70;1.60;;;20.40;99.90;;;;;;4993909;28;20140;-89
2023/06/21 06:25:28;;;;;;;1.60;1.50;;;20.70;99.90;;;;;;4980349;28;20121;-91
2023/06/21 06:27:54;;;;;;;1.60;1.50;;;20.80;99.90;;;;;;4980779;28;20378;-88
2023/06/21 06:30:19;;;;;;;1.50;1.40;;;21.10;99.90;;;;;;4976359;28;20050;-86
2023/06/21 06:32:45;;;;;;;1.30;1.30;;;21.30;99.90;;;;;;4991310;28;20042;-88
2023/06/21 06:35:11;;;;;;;1.20;1.20;;;21.70;99.90;;;;;;4972749;28;20125;-84
2023/06/21 06:37:36;;;;;;;1.13;1.13;;;21.90;99.90;;;;;;4985628;28;20061;-86
2023/06/21 06:40:07;;;;;;;1.00;1.00;;;21.90;99.90;;;;;;4977047;28;20597;-89
2023/06/21 06:42:36;;;;;;;1.15;1.15;;;21.50;99.90;;;;;;4984976;28;20488;-86
2023/06/21 06:45:02;;;;;;;0.98;0.98;;;21.90;99.90;;;;;;4991694;28;20057;-88
2023/06/21 06:47:29;;;;;;;1.00;1.00;;;22.40;99.90;;;;;;4977834;28;20046;-91
2023/06/21 06:49:55;;;;;;;0.90;0.90;;;22.40;99.90;;;;;;4970425;28;20100;-86
2023/06/21 06:52:21;;;;;;;0.90;0.90;;;22.40;99.90;;;;;;4991982;28;20055;-88
2023/06/21 06:54:46;;;;;;;0.90;0.90;;;22.40;99.90;;;;;;4997435;28;20042;-87
2023/06/21 06:57:12;;;;;;;0.80;0.80;;;22.80;99.90;;;;;;4969815;28;20135;-86
2023/06/21 06:59:38;;;;;;;0.80;0.80;;;23.00;99.90;;;;;;4984562;28;20145;-90
2023/06/21 07:02:04;;;;;;;0.80;0.80;;;23.30;99.90;;;;;;4986767;28;20042;-86
2023/06/21 07:04:30;;;;;;;0.80;0.80;;;23.00;99.90;;;;;;4979408;28;20044;-89
2023/06/21 07:06:58;;;;;;;1.02;1.02;;;22.60;99.90;;;;;;4983592;28;20535;-85
2023/06/21 07:09:25;;;;;;;1.75;1.65;;;22.70;99.90;;;;;;4986591;28;20050;-90
2023/06/21 07:11:50;;;;;;;2.25;2.15;;;23.00;99.90;;;;;;4993895;28;20039;-86
2023/06/21 07:14:16;;;;;;;2.30;2.20;;;23.50;99.90;;;;;;4988244;28;21072;-87
2023/06/21 07:16:43;;;;;;;2.47;2.38;;;23.30;99.90;;;;;;4990743;28;20396;-87
2023/06/21 07:19:09;;;;;;;2.40;2.30;;;23.40;99.90;;;;;;4971943;28;20712;-88
2023/06/21 07:23:51;;;;;;;2.20;2.10;;;23.70;99.90;;;;;;5143749;27;20119;-90
2023/06/21 07:26:17;;;;;;;2.10;2.00;;;23.90;99.90;;;;;;5110226;27;20047;-87
2023/06/21 07:28:45;;;;;;;2.28;2.17;;;23.70;99.90;;;;;;5110888;27;20129;-91
2023/06/21 07:31:11;;;;;;;2.58;2.45;;;23.60;99.90;;;;;;5109362;27;20115;-88
2023/06/21 07:33:37;;;;;;;3.17;2.97;;;23.60;99.90;;;;;;5110365;27;20645;-88
2023/06/21 07:36:03;;;;;;;3.35;3.15;;;23.60;99.90;;;;;;5128744;27;20054;-91
2023/06/21 07:38:29;;;;;;;5.10;4.78;;;23.80;99.90;;;;;;5111148;27;20051;-88
2023/06/21 07:40:55;;;;;;;5.90;5.53;;;24.10;99.90;;;;;;5112159;27;20043;-90
2023/06/21 07:43:20;;;;;;;0.45;0.45;;;24.10;99.90;;;;;;5129123;27;20479;-88
2023/06/21 07:45:47;;;;;;;6.53;6.13;;;24.20;99.90;;;;;;5141839;27;20047;-89
2023/06/21 07:48:12;;;;;;;5.53;5.18;;;24.20;99.90;;;;;;5125541;27;20419;-88
2023/06/21 07:50:38;;;;;;;1.67;1.63;;;24.60;99.90;;;;;;5127179;27;20107;-88
2023/06/21 07:53:04;;;;;;;0.73;0.73;;;24.90;99.90;;;;;;5127445;27;20091;-89
2023/06/21 07:55:30;;;;;;;1.90;1.80;;;24.60;99.90;;;;;;5126863;27;20124;-89
2023/06/21 07:57:55;;;;;;;2.75;2.60;;;24.50;99.90;;;;;;5111307;28;20736;-93
2023/06/21 08:00:21;;;;;;;2.55;2.40;;;24.60;99.90;;;;;;5087599;28;20538;-91
2023/06/21 08:02:51;;;;;;;0.38;0.38;;;24.90;99.90;;;;;;5062707;28;20043;-88
2023/06/21 08:05:18;;;;;;;0.25;0.25;;;24.90;99.90;;;;;;5081282;28;20114;-87
2023/06/21 08:07:44;;;;;;;2.03;1.92;;;24.70;99.90;;;;;;5079341;28;20051;-88
2023/06/21 08:10:12;;;;;;;0.40;0.40;;;24.80;99.90;;;;;;5050469;28;20048;-89
2023/06/21 08:12:37;;;;;;;2.00;1.90;;;25.10;99.90;;;;;;5049984;28;20037;-88
2023/06/21 08:15:04;;;;;;;0.30;0.30;;;25.10;99.90;;;;;;5082603;28;20062;-88
2023/06/21 08:17:29;;;;;;;0.43;0.43;;;24.90;99.90;;;;;;5060946;28;20118;-86
2023/06/21 08:19:55;;;;;;;0.30;0.30;;;25.10;99.90;;;;;;5066635;28;20079;-87
2023/06/21 08:22:21;;;;;;;0.50;0.50;;;25.60;99.90;;;;;;5046900;28;20075;-86
2023/06/21 08:24:47;;;;;;;0.73;0.73;;;26.00;99.90;;;;;;5062379;28;20032;-86
2023/06/21 08:27:14;;;;;;;0.30;0.30;;;25.90;99.90;;;;;;5061119;28;20056;-89
2023/06/21 08:29:40;;;;;;;0.43;0.43;;;26.10;99.90;;;;;;5063266;28;20501;-87
2023/06/21 08:32:06;;;;;;;0.40;0.40;;;25.90;99.90;;;;;;5052357;28;20466;-90
2023/06/21 08:34:31;;;;;;;0.30;0.30;;;26.00;99.90;;;;;;5035679;28;20048;-86
2023/06/21 08:36:57;;;;;;;0.30;0.30;;;26.10;99.90;;;;;;5049887;28;20047;-88
2023/06/21 08:39:23;;;;;;;0.30;0.30;;;25.80;99.90;;;;;;5048626;28;20037;-87
2023/06/21 08:41:48;;;;;;;0.38;0.38;;;25.60;99.90;;;;;;5043302;28;20037;-87
2023/06/21 08:44:14;;;;;;;0.40;0.40;;;26.00;99.90;;;;;;5045173;28;20505;-89
2023/06/21 08:46:42;;;;;;;0.40;0.40;;;25.60;99.90;;;;;;5033828;28;20056;-86
2023/06/21 08:49:13;;;;;;;0.30;0.30;;;25.50;99.90;;;;;;5057639;28;20063;-88
2023/06/21 08:51:40;;;;;;;1.35;0.50;;;25.50;99.90;;;;;;5030548;28;20044;-87
2023/06/21 08:54:07;;;;;;;1.08;0.68;;;25.10;99.90;;;;;;5050708;28;20040;-87
2023/06/21 08:56:39;;;;;;;0.30;0.30;;;25.60;99.90;;;;;;5048430;28;20052;-87
2023/06/21 08:59:07;;;;;;;0.30;0.30;;;26.10;99.90;;;;;;5049081;28;20382;-85
2023/06/21 09:01:39;;;;;;;0.30;0.30;;;25.60;99.90;;;;;;5047660;28;20059;-88
2023/06/21 09:04:09;;;;;;;0.30;0.30;;;26.00;99.90;;;;;;5049704;28;20052;-85
2023/06/21 09:06:36;;;;;;;0.30;0.30;;;26.30;99.90;;;;;;5049493;28;20570;-90
2023/06/21 09:09:01;;;;;;;0.30;0.30;;;26.50;99.90;;;;;;5050557;28;20056;-86
2023/06/21 09:11:27;;;;;;;0.50;0.50;;;26.20;99.90;;;;;;5048692;28;20056;-86
2023/06/21 09:13:53;;;;;;;0.30;0.30;;;26.60;99.90;;;;;;5033967;28;20055;-85
2023/06/21 09:16:19;;;;;;;0.30;0.30;;;26.90;99.90;;;;;;5048751;28;20154;-85
2023/06/21 09:18:46;;;;;;;0.30;0.30;;;26.80;99.90;;;;;;5049302;28;20055;-88
2023/06/21 09:21:12;;;;;;;0.30;0.30;;;26.60;99.90;;;;;;5049883;28;20044;-88
2023/06/21 09:23:39;;;;;;;0.45;0.45;;;26.40;99.90;;;;;;5048395;28;20044;-85
2023/06/21 09:26:06;;;;;;;0.20;0.20;;;25.80;99.90;;;;;;5048887;28;20052;-86
2023/06/21 09:28:32;;;;;;;0.30;0.30;;;26.30;99.90;;;;;;5032181;28;20056;-87
2023/06/21 09:30:58;;;;;;;0.30;0.30;;;26.90;99.90;;;;;;5069034;28;20102;-85
2023/06/21 09:33:25;;;;;;;0.30;0.30;;;27.40;99.90;;;;;;5047706;28;20124;-85
2023/06/21 09:35:51;;;;;;;0.20;0.20;;;27.30;99.90;;;;;;5048281;28;20084;-85
2023/06/21 09:38:28;;;;;;;0.30;0.30;;;27.80;99.90;;;;;;5066871;28;20040;-89
2023/06/21 09:40:54;;;;;;;0.32;0.32;;;27.70;99.90;;;;;;5034726;28;20083;-86
2023/06/21 09:43:21;;;;;;;0.30;0.30;;;27.60;99.90;;;;;;5049171;28;20050;-85
2023/06/21 09:46:11;;;;;;;0.30;0.30;;;27.10;99.90;;;;;;5045435;28;20141;-85
2023/06/21 09:48:39;;;;;;;0.30;0.30;;;26.40;99.90;;;;;;5046120;28;20120;-84
2023/06/21 09:51:08;;;;;;;0.30;0.30;;;27.10;99.90;;;;;;5030972;28;20048;-88
2023/06/21 09:53:35;;;;;;;0.30;0.30;;;27.20;99.90;;;;;;5044308;28;20127;-85
2023/06/21 09:56:01;;;;;;;0.30;0.30;;;27.90;99.90;;;;;;5046691;28;20048;-87
2023/06/21 09:58:30;;;;;;;0.30;0.30;;;28.20;99.90;;;;;;5045505;28;20052;-86
2023/06/21 10:00:59;;;;;;;0.30;0.30;;;28.20;99.90;;;;;;5029483;28;20048;-87
2023/06/21 10:03:25;;;;;;;0.30;0.30;;;28.40;99.90;;;;;;5043970;28;20044;-84
2023/06/21 10:05:59;;;;;;;0.30;0.30;;;28.60;99.90;;;;;;5062776;28;20044;-85
2023/06/21 10:08:36;;;;;;;0.20;0.20;;;28.90;99.90;;;;;;5045251;28;20056;-86
2023/06/21 10:11:02;;;;;;;0.30;0.30;;;28.50;99.90;;;;;;5045940;28;20056;-85
2023/06/21 10:13:31;;;;;;;0.30;0.30;;;28.60;99.90;;;;;;5045767;28;20127;-85
2023/06/21 10:15:59;;;;;;;0.20;0.20;;;28.30;99.90;;;;;;5044083;28;20056;-85
2023/06/21 10:18:25;;;;;;;0.20;0.20;;;27.70;99.90;;;;;;5046470;28;20050;-84
2023/06/21 10:21:00;;;;;;;0.20;0.20;;;28.10;99.90;;;;;;5046065;28;20133;-85
2023/06/21 10:23:32;;;;;;;0.30;0.30;;;28.40;99.90;;;;;;5043085;28;20040;-86
2023/06/21 10:26:04;;;;;;;0.25;0.25;;;28.10;99.90;;;;;;5044193;28;20099;-86
2023/06/21 10:28:36;;;;;;;0.40;0.40;;;28.40;99.90;;;;;;5044550;28;20127;-84
2023/06/21 10:31:03;;;;;;;0.25;0.25;;;27.60;99.90;;;;;;5044325;28;20044;-87
2023/06/21 10:33:32;;;;;;;0.30;0.30;;;27.90;99.90;;;;;;5028527;28;20091;-86
2023/06/21 10:36:01;;;;;;;0.32;0.32;;;28.60;99.90;;;;;;5046697;28;20059;-85
2023/06/21 10:38:38;;;;;;;1.17;0.85;;;29.00;99.90;;;;;;5044766;28;20052;-85
2023/06/21 10:41:05;;;;;;;0.25;0.25;;;29.00;99.90;;;;;;5029227;28;20048;-91
2023/06/21 10:43:33;;;;;;;0.30;0.30;;;29.10;99.90;;;;;;5045544;28;20056;-89
2023/06/21 10:45:59;;;;;;;0.20;0.20;;;29.30;99.90;;;;;;5029814;28;20048;-89
2023/06/21 10:48:26;;;;;;;0.30;0.30;;;29.20;99.90;;;;;;5046615;28;20559;-86
2023/06/21 10:50:52;;;;;;;0.30;0.30;;;29.00;99.90;;;;;;5045074;28;20075;-88
2023/06/21 10:53:19;;;;;;;0.57;0.57;;;29.20;99.90;;;;;;5029339;28;20101;-85
2023/06/21 10:55:46;;;;;;;0.28;0.28;;;29.20;99.90;;;;;;5045463;28;20850;-86
2023/06/21 10:58:13;;;;;;;0.30;0.30;;;29.10;99.90;;;;;;5028393;28;20102;-86
2023/06/21 11:00:42;;;;;;;0.30;0.30;;;28.70;99.90;;;;;;5045415;28;20087;-86
2023/06/21 11:03:12;;;;;;;0.30;0.30;;;28.30;99.90;;;;;;5045389;28;20044;-89
2023/06/21 11:05:39;;;;;;;0.30;0.30;;;28.90;99.90;;;;;;5046812;28;20051;-89
2023/06/21 11:08:06;;;;;;;0.30;0.30;;;28.70;99.90;;;;;;5046157;28;20772;-87
2023/06/21 11:10:47;;;;;;;0.30;0.30;;;29.20;99.90;;;;;;5045976;28;20567;-87
2023/06/21 11:13:13;;;;;;;0.30;0.30;;;29.30;99.90;;;;;;5042851;28;20127;-86
2023/06/21 11:15:40;;;;;;;0.30;0.30;;;29.40;99.90;;;;;;5045816;28;20056;-90
2023/06/21 11:18:07;;;;;;;0.30;0.30;;;29.80;99.90;;;;;;5044346;28;20044;-89
2023/06/21 11:20:56;;;;;;;0.30;0.30;;;29.90;99.90;;;;;;5044186;28;21899;-89
2023/06/21 11:23:23;;;;;;;0.32;0.32;;;29.10;99.90;;;;;;5029487;28;20036;-86
2023/06/21 11:26:12;;;;;;;0.22;0.22;;;28.70;99.90;;;;;;5043681;28;20156;-86
2023/06/21 11:28:44;;;;;;;0.20;0.20;;;28.90;99.90;;;;;;5057762;28;20127;-88
2023/06/21 11:31:22;;;;;;;0.30;0.30;;;29.00;99.90;;;;;;5029178;28;20432;-86
2023/06/21 11:33:50;;;;;;;0.40;0.40;;;28.80;99.90;;;;;;5058794;28;20071;-85
2023/06/21 11:36:21;;;;;;;0.40;0.40;;;29.60;99.90;;;;;;5057314;28;20067;-86
2023/06/21 11:39:18;;;;;;;0.30;0.30;;;29.70;99.90;;;;;;5040336;28;20056;-87
2023/06/21 11:41:45;;;;;;;0.45;0.45;;;30.20;99.90;;;;;;5041580;28;20083;-86
2023/06/21 11:44:31;;;;;;;0.30;0.30;;;30.40;99.90;;;;;;5045108;28;20041;-90
2023/06/21 11:47:17;;;;;;;0.20;0.20;;;30.80;99.90;;;;;;5044180;28;20056;-88
2023/06/21 11:49:53;;;;;;;0.30;0.30;;;30.50;99.90;;;;;;5042673;28;20461;-87
2023/06/21 11:52:24;;;;;;;0.20;0.20;;;30.90;99.90;;;;;;5058317;28;20071;-88
2023/06/21 11:54:50;;;;;;;0.30;0.30;;;30.80;99.90;;;;;;5028818;28;20037;-90
2023/06/21 11:57:16;;;;;;;0.20;0.20;;;30.80;99.90;;;;;;5043802;28;20050;-85
2023/06/21 11:59:43;;;;;;;0.25;0.25;;;31.10;99.90;;;;;;5025593;28;20402;-88
2023/06/21 12:02:20;;;;;;;0.30;0.30;;;31.30;99.90;;;;;;5043584;28;20193;-85
2023/06/21 12:04:47;;;;;;;0.30;0.30;;;30.10;99.90;;;;;;5041938;28;20131;-86
2023/06/21 12:07:13;;;;;;;0.30;0.30;;;29.70;99.90;;;;;;5044629;28;20044;-85
2023/06/21 12:09:46;;;;;;;0.30;0.30;;;29.30;99.90;;;;;;5030704;28;20064;-88
2023/06/21 12:12:12;;;;;;;0.20;0.20;;;29.30;99.90;;;;;;5048858;28;20041;-84
2023/06/21 12:14:37;;;;;;;0.80;0.60;;;28.80;99.90;;;;;;5065055;28;20106;-86
2023/06/21 12:17:04;;;;;;;0.30;0.30;;;28.20;99.90;;;;;;5053008;28;20084;-84
2023/06/21 12:19:32;;;;;;;0.40;0.40;;;28.00;99.90;;;;;;5049193;28;20048;-87
2023/06/21 12:22:01;;;;;;;0.30;0.30;;;27.90;99.90;;;;;;5046016;28;20044;-87
2023/06/21 12:24:27;;;;;;;0.30;0.30;;;27.60;99.90;;;;;;5049241;28;20109;-87
2023/06/21 12:26:57;;;;;;;0.30;0.30;;;27.40;99.90;;;;;;5048685;28;20102;-87
2023/06/21 12:29:23;;;;;;;0.20;0.20;;;27.40;99.90;;;;;;5048436;28;20130;-85
2023/06/21 12:31:49;;;;;;;0.30;0.30;;;27.10;99.90;;;;;;5047158;28;20048;-85
2023/06/21 12:34:16;;;;;;;0.32;0.32;;;27.10;99.90;;;;;;5048450;28;20055;-87
2023/06/21 12:36:45;;;;;;;0.30;0.30;;;27.10;99.90;;;;;;5047905;28;20052;-86
2023/06/21 12:39:12;;;;;;;0.28;0.28;;;28.20;99.90;;;;;;5048209;28;20055;-87
2023/06/21 12:41:43;;;;;;;0.20;0.20;;;29.00;99.90;;;;;;5065823;28;20348;-86
2023/06/21 12:44:24;;;;;;;0.30;0.30;;;29.80;99.90;;;;;;5048279;28;20048;-85
2023/06/21 12:46:51;;;;;;;0.30;0.30;;;29.50;99.90;;;;;;5047513;28;20637;-86
2023/06/21 12:49:17;;;;;;;0.22;0.22;;;29.90;99.90;;;;;;5032092;28;20044;-88
2023/06/21 12:51:45;;;;;;;0.20;0.20;;;30.30;99.90;;;;;;5047699;28;20048;-85
2023/06/21 12:54:19;;;;;;;0.20;0.20;;;30.40;99.90;;;;;;5048103;28;22429;-85
2023/06/21 12:56:50;;;;;;;0.32;0.32;;;30.20;99.90;;;;;;5047155;28;20119;-88
2023/06/21 12:59:16;;;;;;;0.20;0.20;;;29.50;99.90;;;;;;5047972;28;20048;-86
2023/06/21 13:01:42;;;;;;;0.30;0.30;;;29.20;99.90;;;;;;5047672;28;20056;-88
2023/06/21 13:04:17;;;;;;;0.30;0.30;;;28.60;99.90;;;;;;5049047;28;20127;-86
2023/06/21 13:06:43;;;;;;;0.30;0.30;;;28.50;99.90;;;;;;5044979;28;20571;-86
2023/06/21 13:09:10;;;;;;;0.30;0.30;;;28.40;99.90;;;;;;5063930;28;20052;-85
2023/06/21 13:11:36;;;;;;;0.52;0.52;;;28.70;99.90;;;;;;5044687;28;20044;-88
2023/06/21 13:14:04;;;;;;;0.30;0.30;;;28.80;99.90;;;;;;5047176;28;20126;-87
2023/06/21 13:16:30;;;;;;;0.30;0.30;;;29.00;99.90;;;;;;5064375;28;20127;-86
2023/06/21 13:18:55;;;;;;;0.30;0.30;;;29.60;99.90;;;;;;5065790;28;20584;-87
2023/06/21 13:21:21;;;;;;;0.28;0.28;;;29.90;99.90;;;;;;5047688;28;20048;-85
2023/06/21 13:23:51;;;;;;;0.30;0.30;;;29.80;99.90;;;;;;5046233;28;20044;-86
2023/06/21 13:26:17;;;;;;;0.20;0.20;;;30.10;99.90;;;;;;5047211;28;20106;-86
2023/06/21 13:28:43;;;;;;;0.40;0.40;;;30.30;99.90;;;;;;5051814;28;20056;-83
2023/06/21 13:31:09;;;;;;;0.25;0.25;;;30.30;99.90;;;;;;5048171;28;20059;-86
2023/06/21 13:33:35;;;;;;;0.20;0.20;;;30.60;99.90;;;;;;5047385;28;20505;-89
2023/06/21 13:36:00;;;;;;;0.30;0.30;;;30.50;99.90;;;;;;5040354;28;20044;-85
2023/06/21 13:38:29;;;;;;;0.20;0.20;;;30.00;99.60;;;;;;5044796;28;20040;-86
2023/06/21 13:40:55;;;;;;;0.22;0.22;;;29.60;99.90;;;;;;5046888;28;20047;-86
2023/06/21 13:43:23;;;;;;;0.38;0.30;;;29.10;99.90;;;;;;5043732;28;20040;-87
2023/06/21 13:45:48;;;;;;;0.30;0.30;;;29.10;99.90;;;;;;5045520;28;20464;-85
2023/06/21 13:48:16;;;;;;;0.30;0.30;;;29.30;99.90;;;;;;5044870;28;20074;-86
2023/06/21 13:50:42;;;;;;;0.30;0.30;;;29.20;99.90;;;;;;5046282;28;20080;-88
2023/06/21 13:53:08;;;;;;;0.30;0.30;;;29.10;99.90;;;;;;5027136;28;20399;-88
2023/06/21 13:55:34;;;;;;;0.30;0.30;;;29.40;99.90;;;;;;5039891;28;20040;-85
2023/06/21 13:57:59;;;;;;;0.20;0.20;;;29.80;99.60;;;;;;5047630;28;20534;-85
2023/06/21 14:00:25;;;;;;;0.20;0.20;;;30.20;99.50;;;;;;5044679;28;20131;-86
2023/06/21 14:02:51;;;;;;;0.20;0.20;;;30.60;99.50;;;;;;5047689;28;20410;-86
2023/06/21 14:05:19;;;;;;;0.30;0.30;;;30.20;99.30;;;;;;5044183;28;20045;-86
2023/06/21 14:07:45;;;;;;;0.20;0.20;;;30.40;99.20;;;;;;5044481;28;20090;-86
2023/06/21 14:10:12;;;;;;;0.30;0.30;;;30.00;98.30;;;;;;5044050;28;20080;-89
2023/06/21 14:12:39;;;;;;;0.20;0.20;;;30.10;99.10;;;;;;5030378;28;20048;-85
2023/06/21 14:15:05;;;;;;;0.30;0.30;;;30.20;98.80;;;;;;5027527;28;20053;-86
2023/06/21 14:17:32;;;;;;;0.20;0.20;;;29.30;97.40;;;;;;5043586;28;20131;-85
2023/06/21 14:20:00;;;;;;;0.30;0.30;;;29.10;98.70;;;;;;5059660;28;20103;-86
2023/06/21 14:22:29;;;;;;;0.30;0.30;;;29.30;99.10;;;;;;5056330;28;20049;-85
2023/06/21 14:24:58;;;;;;;0.20;0.20;;;28.90;99.10;;;;;;5062289;28;20049;-86
2023/06/21 14:27:27;;;;;;;0.20;0.20;;;29.30;99.40;;;;;;5047487;28;20036;-87
2023/06/21 14:30:00;;;;;;;0.20;0.20;;;29.60;98.60;;;;;;5044602;28;20119;-86
2023/06/21 14:32:27;;;;;;;;;;;29.60;98.80;;;;;;5044201;28;20127;-87